Time;durP1;ratioP1;P1;durP2;ratioP2;P2;SDS_P1;SDS_P2;PMS_P1;PMS_P2;Temp;Humidity;BMP_temperature;BMP_pressure;BME280_temperature;BME280_humidity;BME280_pressure;Samples;Min_cycle;Max_cycle;Signal;HPM_P1;HPM_P2
2023/07/11 00:01:09;;;;;;;1.13;0.82;;;22.80;76.10;;;;;;5072483;28;20044;-37
2023/07/11 00:03:36;;;;;;;1.55;0.90;;;;;;;;;;5072545;28;20048;-38
2023/07/11 00:06:04;;;;;;;1.73;0.90;;;23.80;76.80;;;;;;5073719;28;20059;-38
2023/07/11 00:08:31;;;;;;;3.65;1.20;;;23.10;76.10;;;;;;5072237;28;20060;-38
2023/07/11 00:10:59;;;;;;;1.52;0.90;;;23.60;60.90;;;;;;5072439;28;20127;-36
2023/07/11 00:13:26;;;;;;;1.30;0.90;;;;;;;;;;5071933;28;20059;-33
2023/07/11 00:15:57;;;;;;;1.23;0.93;;;23.80;66.00;;;;;;5072162;28;20129;-37
2023/07/11 00:18:23;;;;;;;1.30;0.80;;;23.50;75.90;;;;;;5072433;28;20049;-36
2023/07/11 00:20:50;;;;;;;1.17;0.90;;;22.50;64.90;;;;;;5073149;28;20111;-35
2023/07/11 00:23:17;;;;;;;1.42;0.82;;;24.10;76.10;;;;;;5071942;28;20155;-37
2023/07/11 00:25:44;;;;;;;2.47;1.05;;;23.60;76.80;;;;;;5071948;28;20465;-36
2023/07/11 00:28:12;;;;;;;3.63;1.00;;;24.10;61.30;;;;;;5071968;28;20131;-34
2023/07/11 00:30:41;;;;;;;1.15;0.82;;;22.60;68.80;;;;;;5072668;28;20131;-36
2023/07/11 00:33:08;;;;;;;1.40;0.95;;;21.30;59.80;;;;;;5091664;28;20044;-36
2023/07/11 00:35:35;;;;;;;1.75;0.98;;;;;;;;;;5092322;28;20124;-38
2023/07/11 00:38:02;;;;;;;1.73;1.35;;;23.30;75.80;;;;;;5077937;28;20135;-38
2023/07/11 00:40:29;;;;;;;1.20;1.10;;;;;;;;;;5071569;28;20485;-36
2023/07/11 00:42:56;;;;;;;1.08;0.95;;;23.30;72.80;;;;;;5071733;28;20470;-36
2023/07/11 00:46:00;;;;;;;1.95;0.90;;;23.90;77.00;;;;;;5072052;28;20124;-36
2023/07/11 00:48:28;;;;;;;1.67;1.00;;;23.50;61.00;;;;;;5071885;28;20572;-33
2023/07/11 00:50:55;;;;;;;2.20;1.00;;;22.80;67.20;;;;;;5071591;28;20159;-34
2023/07/11 00:53:21;;;;;;;2.42;1.00;;;24.10;72.90;;;;;;5072587;28;20055;-36
2023/07/11 00:55:48;;;;;;;1.52;1.10;;;23.20;76.50;;;;;;5071853;28;20128;-37
2023/07/11 00:58:15;;;;;;;1.52;1.10;;;;;;;;;;5071603;28;20048;-35
2023/07/11 01:00:42;;;;;;;1.20;1.00;;;23.50;76.00;;;;;;5071872;28;20131;-36
2023/07/11 01:03:09;;;;;;;2.20;0.90;;;23.70;76.70;;;;;;5071411;28;20075;-35
2023/07/11 01:05:38;;;;;;;1.73;1.10;;;23.20;64.40;;;;;;5071356;28;20060;-35
2023/07/11 01:08:05;;;;;;;1.23;0.85;;;23.00;63.80;;;;;;5071697;28;20535;-36
2023/07/11 01:10:32;;;;;;;2.30;1.38;;;;;;;;;;5072574;28;20136;-36
2023/07/11 01:13:00;;;;;;;1.73;1.10;;;23.20;68.10;;;;;;5071434;28;20127;-34
2023/07/11 01:15:26;;;;;;;1.13;0.90;;;22.80;75.60;;;;;;5071324;28;20577;-36
2023/07/11 01:17:53;;;;;;;2.03;1.00;;;23.60;76.10;;;;;;5071668;28;20135;-35
2023/07/11 01:20:22;;;;;;;1.25;1.00;;;;;;;;;;5071239;28;20056;-33
2023/07/11 01:22:52;;;;;;;1.92;0.98;;;24.40;77.20;;;;;;5071286;28;20045;-38
2023/07/11 01:25:19;;;;;;;1.08;0.98;;;;;;;;;;5072209;28;20059;-35
2023/07/11 01:27:47;;;;;;;1.70;0.90;;;;;;;;;;5079126;28;20144;-34
2023/07/11 01:30:18;;;;;;;1.38;1.10;;;24.40;76.60;;;;;;5091764;28;20059;-39
2023/07/11 01:32:45;;;;;;;2.08;1.10;;;;;;;;;;5091406;28;20127;-36
2023/07/11 01:35:11;;;;;;;1.40;1.10;;;23.00;76.00;;;;;;5091410;28;20179;-38
2023/07/11 01:37:38;;;;;;;1.23;1.10;;;;;;;;;;5090772;28;20062;-36
2023/07/11 01:40:09;;;;;;;2.05;1.00;;;24.20;76.60;;;;;;5091475;28;20052;-36
2023/07/11 01:42:35;;;;;;;2.35;1.17;;;24.20;69.70;;;;;;5089549;28;20447;-35
2023/07/11 01:45:03;;;;;;;1.23;0.95;;;23.40;76.20;;;;;;5091414;28;20044;-38
2023/07/11 01:47:30;;;;;;;1.27;0.90;;;;;;;;;;5091308;28;20048;-36
2023/07/11 01:49:57;;;;;;;1.48;1.00;;;;;;;;;;5091931;28;20143;-37
2023/07/11 01:52:24;;;;;;;1.52;1.02;;;23.80;76.80;;;;;;5095296;28;20050;-38
2023/07/11 01:54:51;;;;;;;2.95;1.10;;;;;;;;;;5085748;28;20040;-34
2023/07/11 01:57:19;;;;;;;1.17;0.93;;;23.40;77.10;;;;;;5074802;28;20136;-35
2023/07/11 01:59:46;;;;;;;1.20;0.90;;;23.70;69.10;;;;;;5074924;28;20078;-35
2023/07/11 02:02:13;;;;;;;1.38;1.00;;;23.70;76.50;;;;;;5074714;28;20051;-35
2023/07/11 02:04:40;;;;;;;1.20;0.80;;;23.90;76.60;;;;;;5074956;28;20398;-37
2023/07/11 02:07:07;;;;;;;1.77;1.02;;;22.90;76.90;;;;;;5074594;28;20130;-34
2023/07/11 02:09:34;;;;;;;0.77;0.77;;;;;;;;;;5075729;28;20136;-34
2023/07/11 02:12:00;;;;;;;1.10;1.00;;;23.50;76.80;;;;;;5094697;28;20565;-37
2023/07/11 02:14:28;;;;;;;1.25;1.00;;;23.20;74.40;;;;;;5094748;28;20135;-35
2023/07/11 02:16:55;;;;;;;1.73;1.00;;;23.60;73.30;;;;;;5094571;28;20490;-35
2023/07/11 02:19:23;;;;;;;1.10;0.90;;;23.30;62.90;;;;;;5094763;28;20127;-34
2023/07/11 02:21:50;;;;;;;1.30;0.82;;;;;;;;;;5094627;28;20130;-36
2023/07/11 02:24:18;;;;;;;1.38;1.27;;;23.30;61.00;;;;;;5094440;28;20500;-38
2023/07/11 02:26:45;;;;;;;1.67;0.90;;;;;;;;;;5093991;28;20127;-35
2023/07/11 02:29:12;;;;;;;1.77;1.05;;;23.20;76.50;;;;;;5094571;28;20135;-37
2023/07/11 02:31:40;;;;;;;1.17;0.90;;;23.30;61.10;;;;;;5086168;28;20552;-35
2023/07/11 02:34:06;;;;;;;2.38;1.20;;;23.30;67.80;;;;;;5074046;28;20131;-36
2023/07/11 02:36:33;;;;;;;2.90;1.10;;;23.30;76.50;;;;;;5087661;28;20568;-38
2023/07/11 02:39:00;;;;;;;1.60;0.90;;;23.00;76.10;;;;;;5094238;28;20139;-38
2023/07/11 02:41:27;;;;;;;1.38;1.00;;;;;;;;;;5084445;28;20154;-34
2023/07/11 02:43:54;;;;;;;1.50;1.10;;;23.40;76.60;;;;;;5073999;28;20127;-39
2023/07/11 02:46:21;;;;;;;1.90;1.08;;;;;;;;;;5074027;28;20131;-36
2023/07/11 02:48:49;;;;;;;1.27;1.10;;;23.20;60.50;;;;;;5080659;28;20051;-39
2023/07/11 02:51:15;;;;;;;3.10;1.15;;;22.20;75.00;;;;;;5073410;28;20904;-38
2023/07/11 02:53:42;;;;;;;2.78;1.20;;;;;;;;;;5073824;28;20163;-36
2023/07/11 02:56:09;;;;;;;1.10;1.00;;;22.90;75.60;;;;;;5074065;28;20055;-35
2023/07/11 02:58:36;;;;;;;3.03;1.23;;;23.60;76.10;;;;;;5083025;28;20060;-36
2023/07/11 03:01:04;;;;;;;4.88;1.55;;;;;;;;;;5093584;28;20131;-39
2023/07/11 03:03:30;;;;;;;2.13;1.25;;;22.70;75.00;;;;;;5092466;28;20098;-34
2023/07/11 03:05:58;;;;;;;2.95;1.40;;;23.10;59.60;;;;;;5093965;28;20049;-34
2023/07/11 03:08:25;;;;;;;2.45;1.33;;;;;;;;;;5093877;28;20054;-33
2023/07/11 03:10:52;;;;;;;3.08;1.17;;;24.00;75.60;;;;;;5093888;28;20127;-36
2023/07/11 03:13:19;;;;;;;1.83;1.17;;;22.90;74.60;;;;;;5093374;28;20055;-34
2023/07/11 03:15:46;;;;;;;3.35;1.30;;;22.80;67.90;;;;;;5089185;28;20055;-39
2023/07/11 03:18:13;;;;;;;2.53;1.38;;;22.70;75.20;;;;;;5075095;28;20385;-37
2023/07/11 03:20:40;;;;;;;2.72;1.40;;;;;;;;;;5084426;28;20491;-36
2023/07/11 03:23:09;;;;;;;2.88;1.42;;;23.10;66.90;;;;;;5093359;28;20147;-37
2023/07/11 03:25:36;;;;;;;4.03;1.48;;;23.00;58.90;;;;;;5093475;28;20473;-36
2023/07/11 03:28:03;;;;;;;3.80;1.45;;;22.80;74.10;;;;;;5093396;28;20135;-37
2023/07/11 03:30:31;;;;;;;2.72;1.30;;;23.30;75.10;;;;;;5086635;28;20128;-39
2023/07/11 03:32:58;;;;;;;2.75;1.40;;;;;;;;;;5091639;28;20123;-35
2023/07/11 03:35:25;;;;;;;3.28;1.30;;;22.60;60.50;;;;;;5088008;28;20115;-39
2023/07/11 03:37:51;;;;;;;2.75;1.45;;;23.80;69.60;;;;;;5092440;28;20584;-37
2023/07/11 03:40:19;;;;;;;4.18;1.60;;;22.90;58.60;;;;;;5093324;28;20140;-33
2023/07/11 03:42:46;;;;;;;3.42;1.55;;;;;;;;;;5092851;28;20588;-37
2023/07/11 03:45:13;;;;;;;5.15;1.58;;;23.00;74.90;;;;;;5092941;28;20494;-36
2023/07/11 03:47:40;;;;;;;3.88;1.50;;;23.00;74.30;;;;;;5073374;28;20132;-38
2023/07/11 03:50:07;;;;;;;4.40;1.40;;;22.70;61.90;;;;;;5072741;28;20139;-36
2023/07/11 03:52:34;;;;;;;3.08;1.50;;;23.30;75.10;;;;;;5072557;28;20051;-36
2023/07/11 03:55:01;;;;;;;2.88;1.30;;;22.20;73.50;;;;;;5072424;28;20053;-37
2023/07/11 03:57:29;;;;;;;4.68;1.50;;;23.20;74.20;;;;;;5072549;28;20128;-37
2023/07/11 03:59:56;;;;;;;4.63;1.60;;;23.10;74.10;;;;;;5080412;28;20044;-36
2023/07/11 04:02:22;;;;;;;5.50;1.77;;;22.60;74.50;;;;;;5092503;28;20052;-38
2023/07/11 04:04:49;;;;;;;4.18;1.60;;;;;;;;;;5092551;28;20683;-35
2023/07/11 04:07:16;;;;;;;2.47;1.60;;;22.30;74.70;;;;;;5092715;28;20488;-37
2023/07/11 04:09:43;;;;;;;3.88;1.38;;;;;;;;;;5092640;28;20131;-34
2023/07/11 04:12:11;;;;;;;3.10;1.65;;;21.90;73.30;;;;;;5092341;28;20074;-39
2023/07/11 04:14:39;;;;;;;3.85;1.75;;;22.70;58.30;;;;;;5074665;28;20127;-35
2023/07/11 04:17:06;;;;;;;2.83;1.50;;;23.20;65.60;;;;;;5084691;28;20131;-35
2023/07/11 04:19:33;;;;;;;3.30;1.67;;;;;;;;;;5092633;28;20071;-35
2023/07/11 04:22:00;;;;;;;3.75;1.45;;;23.80;64.70;;;;;;5092324;28;20560;-36
2023/07/11 04:24:26;;;;;;;2.88;1.40;;;22.50;74.70;;;;;;5092146;28;20054;-36
2023/07/11 04:26:53;;;;;;;5.25;1.88;;;22.70;74.40;;;;;;5091858;28;20044;-34
2023/07/11 04:29:20;;;;;;;3.78;1.85;;;22.40;63.90;;;;;;5092367;28;20123;-38
2023/07/11 04:31:48;;;;;;;3.85;1.63;;;22.70;58.40;;;;;;5092244;28;20066;-35
2023/07/11 04:34:14;;;;;;;3.92;1.70;;;22.70;74.80;;;;;;5091927;28;20047;-34
2023/07/11 04:36:41;;;;;;;4.07;1.67;;;;;;;;;;5087543;28;20126;-35
2023/07/11 04:39:09;;;;;;;4.60;1.83;;;21.60;68.70;;;;;;5085234;28;20131;-36
2023/07/11 04:41:35;;;;;;;4.28;1.90;;;22.70;74.20;;;;;;5078273;28;20412;-36
2023/07/11 04:44:02;;;;;;;4.72;1.70;;;22.70;60.60;;;;;;5081106;28;20040;-36
2023/07/11 04:46:29;;;;;;;6.07;2.20;;;23.10;75.20;;;;;;5082828;28;20485;-39
2023/07/11 04:48:57;;;;;;;4.55;1.80;;;23.30;60.80;;;;;;5092073;28;20063;-34
2023/07/11 04:51:24;;;;;;;3.50;2.00;;;22.60;75.00;;;;;;5092132;28;20596;-40
2023/07/11 04:53:51;;;;;;;2.80;1.63;;;;;;;;;;5086881;28;20127;-33
2023/07/11 04:56:18;;;;;;;5.10;1.67;;;22.60;74.60;;;;;;5071786;28;20131;-36
2023/07/11 04:58:45;;;;;;;4.65;1.77;;;;;;;;;;5072002;28;20137;-34
2023/07/11 05:01:12;;;;;;;3.40;1.77;;;22.80;75.30;;;;;;5071780;28;20055;-36
2023/07/11 05:03:39;;;;;;;4.93;1.92;;;22.50;67.60;;;;;;5071646;28;20048;-38
2023/07/11 05:06:07;;;;;;;5.38;2.20;;;22.80;74.50;;;;;;5078976;28;20127;-38
2023/07/11 05:08:34;;;;;;;7.07;2.03;;;22.90;74.70;;;;;;5080485;28;20062;-40
2023/07/11 05:11:02;;;;;;;4.85;1.95;;;22.70;58.80;;;;;;5081560;28;20416;-40
2023/07/11 05:13:29;;;;;;;2.38;1.70;;;22.70;75.40;;;;;;5082241;28;20519;-42
2023/07/11 05:15:59;;;;;;;4.18;2.17;;;22.30;73.10;;;;;;5081923;28;20067;-39
2023/07/11 05:18:25;;;;;;;4.88;1.85;;;21.60;72.40;;;;;;5081847;28;20127;-36
2023/07/11 05:20:54;;;;;;;4.13;1.98;;;23.60;75.30;;;;;;5087796;28;20486;-39
2023/07/11 05:23:22;;;;;;;4.05;1.85;;;23.20;75.80;;;;;;5071397;28;20045;-38
2023/07/11 05:25:49;;;;;;;5.55;1.70;;;22.60;74.70;;;;;;5073575;28;20127;-38
2023/07/11 05:28:16;;;;;;;3.15;1.83;;;;;;;;;;5075404;28;20493;-37
2023/07/11 05:30:42;;;;;;;4.20;2.03;;;23.10;75.50;;;;;;5075691;28;20118;-40
2023/07/11 05:33:10;;;;;;;6.72;1.77;;;;;;;;;;5075287;28;20142;-40
2023/07/11 05:35:37;;;;;;;3.05;1.80;;;23.20;76.10;;;;;;5083419;28;20040;-36
2023/07/11 05:38:04;;;;;;;4.90;2.05;;;;;;;;;;5093738;28;20044;-34
2023/07/11 05:40:32;;;;;;;6.72;2.10;;;22.90;76.10;;;;;;5095588;28;20502;-38
2023/07/11 05:42:59;;;;;;;4.80;1.80;;;;;;;;;;5095129;28;20127;-35
2023/07/11 05:45:26;;;;;;;4.47;1.90;;;;;;;;;;5095529;28;20123;-36
2023/07/11 05:47:53;;;;;;;4.00;1.95;;;22.70;75.90;;;;;;5094775;28;20054;-38
2023/07/11 05:50:21;;;;;;;4.90;2.25;;;22.20;75.80;;;;;;5095364;28;20505;-37
2023/07/11 05:52:48;;;;;;;5.07;1.77;;;;;;;;;;5095181;28;20052;-38
2023/07/11 05:55:15;;;;;;;4.18;1.70;;;;;;;;;;5095114;28;20046;-40
2023/07/11 05:57:43;;;;;;;4.93;1.95;;;22.60;59.70;;;;;;5095443;28;20127;-36
2023/07/11 06:00:11;;;;;;;5.93;2.28;;;22.20;75.50;;;;;;5095319;28;20123;-40
2023/07/11 06:02:38;;;;;;;3.58;2.00;;;23.30;68.40;;;;;;5082741;28;20127;-36
2023/07/11 06:05:05;;;;;;;2.42;1.70;;;22.50;59.80;;;;;;5074793;28;20055;-36
2023/07/11 06:07:34;;;;;;;3.85;1.98;;;21.80;75.40;;;;;;5074875;28;20074;-40
2023/07/11 06:10:00;;;;;;;4.47;2.10;;;22.60;75.60;;;;;;5090786;28;20527;-39
2023/07/11 06:12:27;;;;;;;4.10;2.17;;;22.90;70.60;;;;;;5094995;28;20206;-39
2023/07/11 06:14:55;;;;;;;3.25;1.85;;;22.50;75.90;;;;;;5094238;28;20043;-38
2023/07/11 06:17:22;;;;;;;5.95;2.08;;;22.20;75.60;;;;;;5085647;28;20048;-40
2023/07/11 06:19:49;;;;;;;3.45;1.88;;;21.50;75.60;;;;;;5074083;28;20123;-37
2023/07/11 06:22:16;;;;;;;3.40;2.17;;;;;;;;;;5074139;28;20052;-31
2023/07/11 06:24:43;;;;;;;4.28;1.70;;;22.10;75.40;;;;;;5074007;28;20116;-32
2023/07/11 06:27:09;;;;;;;4.00;1.90;;;23.40;67.90;;;;;;5073838;28;20049;-32
2023/07/11 06:29:36;;;;;;;4.30;1.80;;;23.40;76.30;;;;;;5076120;28;20125;-33
2023/07/11 06:32:06;;;;;;;3.50;2.13;;;22.50;60.30;;;;;;5077004;28;20484;-35
2023/07/11 06:34:32;;;;;;;2.83;1.67;;;23.30;63.90;;;;;;5078839;28;20127;-33
2023/07/11 06:36:59;;;;;;;4.53;2.03;;;;;;;;;;5084837;28;20131;-33
2023/07/11 06:39:26;;;;;;;5.63;2.30;;;22.20;76.50;;;;;;5084020;28;20127;-33
2023/07/11 06:41:53;;;;;;;2.83;1.80;;;23.00;64.00;;;;;;5082242;28;20055;-33
2023/07/11 06:44:21;;;;;;;3.97;2.00;;;22.70;76.40;;;;;;5073087;28;20052;-32
2023/07/11 06:46:47;;;;;;;3.20;1.63;;;23.00;76.20;;;;;;5074268;28;20059;-32
2023/07/11 06:49:15;;;;;;;5.20;1.90;;;22.60;65.60;;;;;;5074099;28;20045;-36
2023/07/11 06:51:42;;;;;;;4.72;1.80;;;23.20;64.60;;;;;;5073874;28;20135;-33
2023/07/11 06:54:09;;;;;;;4.07;2.10;;;22.50;76.30;;;;;;5073814;28;20052;-33
2023/07/11 06:56:35;;;;;;;2.90;1.83;;;22.40;76.60;;;;;;5073718;28;20051;-33
2023/07/11 06:59:03;;;;;;;3.08;1.80;;;;;;;;;;5073861;28;20076;-36
2023/07/11 07:01:29;;;;;;;4.32;1.73;;;23.30;74.50;;;;;;5074144;28;20059;-32
2023/07/11 07:03:56;;;;;;;3.17;1.75;;;;;;;;;;5073496;28;20052;-34
2023/07/11 07:06:25;;;;;;;5.60;2.00;;;22.70;76.90;;;;;;5090962;28;20127;-33
2023/07/11 07:08:51;;;;;;;5.03;1.90;;;22.60;76.10;;;;;;5093997;28;20550;-34
2023/07/11 07:11:18;;;;;;;4.13;2.20;;;22.80;76.20;;;;;;5092909;28;20143;-35
2023/07/11 07:13:45;;;;;;;3.45;1.88;;;22.90;61.30;;;;;;5089021;28;20473;-35
2023/07/11 07:16:12;;;;;;;4.05;2.00;;;22.00;76.50;;;;;;5079524;28;20076;-32
2023/07/11 07:18:41;;;;;;;2.30;1.70;;;22.80;61.10;;;;;;5073704;28;20143;-35
2023/07/11 07:21:09;;;;;;;2.63;2.00;;;22.80;76.70;;;;;;5080018;28;20143;-32
2023/07/11 07:23:38;;;;;;;4.05;1.90;;;22.80;76.60;;;;;;5073167;28;20049;-33
2023/07/11 07:26:05;;;;;;;4.13;2.38;;;23.20;77.20;;;;;;5073542;28;20055;-31
2023/07/11 07:28:34;;;;;;;4.35;1.90;;;22.20;76.30;;;;;;5073570;28;20136;-32
2023/07/11 07:31:02;;;;;;;4.47;2.10;;;23.50;77.90;;;;;;5073332;28;20124;-34
2023/07/11 07:33:29;;;;;;;4.30;2.28;;;22.30;76.30;;;;;;5076442;28;20040;-31
2023/07/11 07:35:56;;;;;;;5.22;2.10;;;23.00;73.10;;;;;;5083254;28;20048;-32
2023/07/11 07:38:23;;;;;;;3.83;2.15;;;22.10;76.70;;;;;;5080646;28;20180;-32
2023/07/11 07:40:53;;;;;;;3.53;1.98;;;22.90;61.10;;;;;;5082719;28;20048;-35
2023/07/11 07:43:20;;;;;;;4.00;1.92;;;;;;;;;;5079404;28;20134;-33
2023/07/11 07:45:48;;;;;;;4.05;1.92;;;22.60;77.10;;;;;;5072493;28;20545;-32
2023/07/11 07:48:15;;;;;;;4.50;2.10;;;;;;;;;;5070556;28;20060;-33
2023/07/11 07:50:42;;;;;;;4.40;2.00;;;23.10;77.10;;;;;;5071274;28;20486;-33
2023/07/11 07:53:09;;;;;;;4.45;2.20;;;22.80;76.40;;;;;;5071570;28;20135;-31
2023/07/11 07:55:36;;;;;;;6.85;2.28;;;23.20;77.30;;;;;;5071936;28;20407;-32
2023/07/11 07:58:04;;;;;;;4.00;2.13;;;23.00;61.10;;;;;;5071934;28;20059;-32
2023/07/11 08:00:30;;;;;;;3.13;1.95;;;23.30;70.00;;;;;;5071768;28;20127;-33
2023/07/11 08:02:57;;;;;;;3.45;2.10;;;;;;;;;;5084192;28;20127;-33
2023/07/11 08:05:24;;;;;;;3.83;1.92;;;;;;;;;;5077204;28;20050;-34
2023/07/11 08:07:51;;;;;;;5.95;2.15;;;22.70;76.10;;;;;;5083333;28;20465;-31
2023/07/11 08:10:18;;;;;;;2.92;1.88;;;;;;;;;;5077875;28;20143;-33
2023/07/11 08:12:46;;;;;;;2.83;1.77;;;23.30;76.80;;;;;;5080355;28;20123;-32
2023/07/11 08:15:14;;;;;;;3.90;1.92;;;23.10;61.00;;;;;;5082601;28;20052;-33
2023/07/11 08:17:42;;;;;;;4.85;2.22;;;22.70;64.00;;;;;;5081493;28;20045;-35
2023/07/11 08:20:09;;;;;;;3.28;1.98;;;;;;;;;;5080900;28;20052;-33
2023/07/11 08:22:36;;;;;;;3.05;1.80;;;24.00;77.50;;;;;;5082305;28;20048;-33
2023/07/11 08:25:03;;;;;;;4.43;2.10;;;;;;;;;;5082561;28;20062;-35
2023/07/11 08:27:30;;;;;;;4.25;2.17;;;23.70;77.10;;;;;;5080818;28;20123;-32
2023/07/11 08:29:56;;;;;;;4.13;2.22;;;22.90;76.30;;;;;;5080521;28;20131;-31
2023/07/11 08:32:24;;;;;;;8.45;2.30;;;22.60;60.40;;;;;;5081065;28;20131;-34
2023/07/11 08:34:51;;;;;;;3.25;1.95;;;;;;;;;;5071653;28;20041;-34
2023/07/11 08:37:19;;;;;;;4.13;2.05;;;22.60;75.50;;;;;;5076111;28;20135;-31
2023/07/11 08:39:46;;;;;;;4.15;2.00;;;;;;;;;;5080350;28;20052;-35
2023/07/11 08:42:23;;;;;;;3.28;1.80;;;23.50;76.30;;;;;;5088801;28;20131;-32
2023/07/11 08:44:51;;;;;;;2.90;1.95;;;;;;;;;;5092145;28;20131;-35
2023/07/11 08:47:18;;;;;;;4.65;2.20;;;;;;;;;;5092021;28;20131;-34
2023/07/11 08:49:49;;;;;;;4.57;1.95;;;23.00;75.70;;;;;;5092312;28;20074;-31
2023/07/11 08:52:17;;;;;;;3.45;1.83;;;;;;;;;;5082322;28;20047;-36
2023/07/11 08:54:48;;;;;;;3.92;2.42;;;23.60;60.20;;;;;;5079506;28;20051;-36
2023/07/11 08:57:15;;;;;;;2.42;1.75;;;22.80;75.20;;;;;;5082501;28;20412;-31
2023/07/11 08:59:44;;;;;;;5.03;1.85;;;23.60;60.10;;;;;;5080153;28;20128;-35
2023/07/11 09:02:27;;;;;;;3.60;2.10;;;23.50;66.50;;;;;;5080263;28;20119;-33
2023/07/11 09:04:55;;;;;;;2.55;1.70;;;23.60;60.10;;;;;;5080761;28;20040;-31
2023/07/11 09:07:26;;;;;;;2.78;1.80;;;23.00;75.40;;;;;;5079665;28;20127;-31
2023/07/11 09:09:53;;;;;;;3.25;1.60;;;23.70;75.90;;;;;;5071341;28;20047;-32
2023/07/11 09:12:22;;;;;;;3.50;1.80;;;24.30;76.40;;;;;;5071257;28;20127;-31
2023/07/11 09:14:52;;;;;;;2.85;1.90;;;23.70;75.20;;;;;;5071259;28;20132;-32
2023/07/11 09:17:23;;;;;;;2.47;1.80;;;23.80;75.10;;;;;;5070961;28;20128;-32
2023/07/11 09:20:00;;;;;;;2.40;1.90;;;24.00;61.50;;;;;;5071385;28;20444;-32
2023/07/11 09:22:31;;;;;;;2.75;1.73;;;24.60;60.20;;;;;;5070618;28;20094;-34
2023/07/11 09:24:59;;;;;;;2.30;1.63;;;23.80;59.80;;;;;;5071327;28;20414;-34
2023/07/11 09:27:27;;;;;;;3.70;1.90;;;22.70;74.40;;;;;;5071553;28;20052;-32
2023/07/11 09:29:54;;;;;;;4.57;2.00;;;23.90;75.40;;;;;;5071342;28;20470;-32
2023/07/11 09:32:31;;;;;;;2.63;1.77;;;24.10;68.70;;;;;;5071337;28;20049;-32
2023/07/11 09:34:59;;;;;;;5.45;1.90;;;23.80;61.40;;;;;;5079443;28;20055;-36
2023/07/11 09:37:29;;;;;;;3.55;1.83;;;24.00;74.90;;;;;;5088784;28;20044;-32
2023/07/11 09:39:58;;;;;;;4.05;1.80;;;23.50;69.50;;;;;;5082630;28;20127;-32
2023/07/11 09:42:35;;;;;;;3.50;1.88;;;24.10;59.80;;;;;;5071248;28;20055;-34
2023/07/11 09:45:02;;;;;;;3.47;1.90;;;25.00;60.30;;;;;;5086859;28;20507;-33
2023/07/11 09:47:30;;;;;;;3.22;1.70;;;24.70;75.70;;;;;;5091156;28;20688;-36
2023/07/11 09:49:59;;;;;;;2.67;1.70;;;23.90;59.70;;;;;;5091381;28;20131;-35
2023/07/11 09:52:27;;;;;;;2.80;1.75;;;23.90;59.70;;;;;;5091442;28;20127;-36
2023/07/11 09:54:54;;;;;;;2.90;1.70;;;23.70;66.90;;;;;;5091208;28;20151;-38
2023/07/11 09:57:21;;;;;;;3.55;1.80;;;23.80;74.70;;;;;;5074262;28;20416;-39
2023/07/11 09:59:54;;;;;;;3.35;1.90;;;24.30;75.70;;;;;;5070958;28;20055;-37
2023/07/11 10:02:22;;;;;;;2.95;1.73;;;24.00;59.70;;;;;;5071153;28;20076;-38
2023/07/11 10:04:51;;;;;;;3.45;1.70;;;24.10;70.70;;;;;;5071409;28;20090;-40
2023/07/11 10:07:21;;;;;;;3.08;1.58;;;24.10;73.60;;;;;;5085244;28;20551;-37
2023/07/11 10:09:49;;;;;;;4.43;1.63;;;24.10;59.70;;;;;;5091114;28;20048;-36
2023/07/11 10:12:18;;;;;;;2.40;1.73;;;24.10;59.70;;;;;;5086810;28;20044;-34
2023/07/11 10:14:46;;;;;;;3.63;1.90;;;25.20;63.60;;;;;;5083482;28;20135;-35
2023/07/11 10:17:17;;;;;;;3.10;1.90;;;24.00;60.50;;;;;;5084392;28;20044;-34
2023/07/11 10:19:44;;;;;;;3.25;2.03;;;24.10;75.60;;;;;;5087902;28;20044;-37
2023/07/11 10:22:16;;;;;;;2.25;1.65;;;25.10;63.60;;;;;;5093332;28;20093;-36
2023/07/11 10:24:44;;;;;;;3.38;1.50;;;24.10;59.70;;;;;;5094368;28;20071;-34
2023/07/11 10:27:19;;;;;;;2.85;1.60;;;24.20;59.70;;;;;;5072575;28;20638;-36
2023/07/11 10:29:47;;;;;;;2.35;1.67;;;24.00;74.70;;;;;;5072787;28;20128;-36
2023/07/11 10:32:33;;;;;;;2.55;1.48;;;24.10;75.40;;;;;;5074479;28;20055;-39
2023/07/11 10:35:00;;;;;;;2.55;1.70;;;23.80;74.80;;;;;;5075633;28;20127;-36
2023/07/11 10:37:29;;;;;;;2.90;1.65;;;24.10;61.20;;;;;;5093899;28;20054;-36
2023/07/11 10:40:00;;;;;;;2.90;1.70;;;24.20;69.00;;;;;;5082724;28;20117;-37
2023/07/11 10:42:29;;;;;;;2.00;1.70;;;24.30;59.60;;;;;;5085568;28;20055;-40
2023/07/11 10:45:01;;;;;;;2.83;1.80;;;24.20;74.50;;;;;;5087898;28;20135;-40
2023/07/11 10:47:32;;;;;;;2.63;1.60;;;24.20;74.40;;;;;;5083814;28;20068;-35
2023/07/11 10:50:00;;;;;;;2.67;1.60;;;;;;;;;;5082623;28;20512;-34
2023/07/11 10:52:27;;;;;;;2.10;1.60;;;24.00;74.70;;;;;;5088443;28;20090;-36
2023/07/11 10:54:55;;;;;;;3.72;1.80;;;24.20;70.40;;;;;;5088734;28;20054;-36
2023/07/11 10:57:33;;;;;;;4.20;1.75;;;24.30;62.90;;;;;;5079846;28;20050;-36
2023/07/11 11:00:00;;;;;;;3.42;1.80;;;25.00;74.90;;;;;;5084711;28;20043;-37
2023/07/11 11:02:32;;;;;;;2.08;1.42;;;23.90;75.00;;;;;;5082710;28;20128;-38
2023/07/11 11:05:04;;;;;;;2.58;1.90;;;24.40;74.40;;;;;;5094125;28;20164;-39
2023/07/11 11:07:34;;;;;;;2.65;1.50;;;24.70;68.10;;;;;;5090701;28;20051;-36
2023/07/11 11:10:04;;;;;;;3.17;1.83;;;24.50;59.40;;;;;;5073399;28;20059;-37
2023/07/11 11:12:37;;;;;;;3.38;1.63;;;24.50;74.50;;;;;;5073234;28;20049;-37
2023/07/11 11:15:21;;;;;;;2.55;1.70;;;24.50;59.40;;;;;;5073534;28;20127;-34
2023/07/11 11:17:52;;;;;;;2.00;1.60;;;24.50;59.40;;;;;;5073989;28;20044;-37
2023/07/11 11:20:22;;;;;;;3.28;1.70;;;24.40;75.00;;;;;;5076789;28;20238;-38
2023/07/11 11:22:56;;;;;;;2.40;1.70;;;24.60;73.30;;;;;;5092769;28;20132;-35
2023/07/11 11:25:25;;;;;;;2.03;1.52;;;25.10;75.00;;;;;;5084902;28;20044;-40
2023/07/11 11:27:58;;;;;;;3.30;1.48;;;24.40;74.20;;;;;;5093613;28;20115;-39
2023/07/11 11:30:31;;;;;;;2.05;1.50;;;24.60;67.80;;;;;;5086958;28;20471;-39
2023/07/11 11:33:03;;;;;;;2.28;1.58;;;25.40;74.70;;;;;;5080664;28;20127;-40
2023/07/11 11:35:34;;;;;;;2.47;1.63;;;24.60;66.20;;;;;;5078513;28;20063;-39
2023/07/11 11:38:23;;;;;;;2.38;1.38;;;24.40;74.80;;;;;;5077216;28;20405;-38
2023/07/11 11:40:52;;;;;;;2.33;1.48;;;23.60;74.00;;;;;;5073471;28;20127;-38
2023/07/11 11:43:21;;;;;;;1.73;1.42;;;24.60;59.40;;;;;;5089704;28;20079;-36
2023/07/11 11:45:48;;;;;;;2.65;1.55;;;24.00;74.60;;;;;;5091627;28;20075;-36
2023/07/11 11:48:17;;;;;;;2.30;1.70;;;24.60;59.40;;;;;;5087127;28;20054;-37
2023/07/11 11:50:44;;;;;;;2.13;1.63;;;24.50;75.00;;;;;;5082687;28;20090;-39
2023/07/11 11:53:22;;;;;;;2.00;1.70;;;24.70;59.40;;;;;;5073796;28;20132;-35
2023/07/11 11:55:52;;;;;;;2.10;1.50;;;24.80;74.30;;;;;;5072977;28;20052;-39
2023/07/11 11:58:21;;;;;;;3.25;1.60;;;24.70;59.40;;;;;;5079127;28;20139;-37
2023/07/11 12:00:50;;;;;;;2.20;1.42;;;25.40;59.90;;;;;;5093042;28;20062;-36
2023/07/11 12:03:19;;;;;;;2.70;1.48;;;24.60;74.10;;;;;;5083926;28;20052;-38
2023/07/11 12:05:48;;;;;;;2.88;1.50;;;24.70;59.30;;;;;;5084391;28;20174;-35
2023/07/11 12:08:30;;;;;;;2.28;1.70;;;23.90;74.50;;;;;;5080570;28;20047;-31
2023/07/11 12:11:19;;;;;;;1.98;1.55;;;24.70;70.10;;;;;;5082141;28;20123;-32
2023/07/11 12:14:12;;;;;;;1.85;1.48;;;25.30;71.50;;;;;;5083304;28;20670;-35
2023/07/11 12:16:39;;;;;;;1.77;1.40;;;24.90;67.50;;;;;;5082564;28;20412;-33
2023/07/11 12:19:21;;;;;;;1.92;1.30;;;25.00;74.40;;;;;;5081009;28;20047;-31
2023/07/11 12:21:48;;;;;;;1.98;1.42;;;24.10;73.80;;;;;;5071916;28;20068;-38
2023/07/11 12:24:21;;;;;;;2.53;1.70;;;24.80;74.20;;;;;;5071609;28;20124;-36
2023/07/11 12:26:47;;;;;;;2.08;1.48;;;24.00;73.70;;;;;;5072125;28;20043;-36
2023/07/11 12:29:41;;;;;;;2.92;1.60;;;24.70;59.30;;;;;;5071973;28;20123;-38
2023/07/11 12:32:41;;;;;;;1.67;1.40;;;24.60;61.60;;;;;;5069011;28;20478;-40
2023/07/11 12:35:13;;;;;;;2.63;1.52;;;24.80;59.40;;;;;;5080222;28;20060;-37
2023/07/11 12:37:46;;;;;;;1.65;1.30;;;24.80;67.60;;;;;;5080064;28;20047;-40
2023/07/11 12:40:15;;;;;;;1.90;1.50;;;24.40;61.30;;;;;;5081227;28;20044;-36
2023/07/11 12:42:47;;;;;;;2.70;1.60;;;25.90;74.80;;;;;;5084021;28;20052;-38
2023/07/11 12:45:17;;;;;;;2.42;1.58;;;24.80;74.90;;;;;;5083202;28;20139;-37
2023/07/11 12:47:44;;;;;;;2.38;1.45;;;24.50;74.30;;;;;;5082487;28;20123;-32
2023/07/11 12:50:19;;;;;;;1.92;1.35;;;24.70;59.40;;;;;;5082791;28;20048;-35
2023/07/11 12:52:46;;;;;;;2.40;1.80;;;;;;;;;;5071206;28;20553;-32
2023/07/11 12:55:12;;;;;;;2.85;1.55;;;24.60;69.70;;;;;;5071488;28;20401;-32
2023/07/11 12:57:44;;;;;;;1.88;1.40;;;23.70;61.40;;;;;;5071779;28;20132;-33
2023/07/11 13:00:21;;;;;;;1.88;1.40;;;24.70;59.40;;;;;;5072130;28;20053;-35
2023/07/11 13:02:49;;;;;;;2.08;1.38;;;;;;;;;;5071528;28;20056;-34
2023/07/11 13:05:16;;;;;;;2.47;1.40;;;;;;;;;;5071784;28;20127;-33
2023/07/11 13:07:44;;;;;;;2.03;1.60;;;24.70;74.70;;;;;;5072210;28;20131;-33
2023/07/11 13:10:18;;;;;;;2.22;1.60;;;25.40;75.40;;;;;;5071991;28;20056;-33
2023/07/11 13:12:45;;;;;;;3.13;1.67;;;24.40;74.10;;;;;;5070722;28;20040;-31